createdAt,value
2023-02-19T00:14:48.227Z,4.55
2023-02-19T00:30:30.724Z,4.57
2023-02-19T00:46:13.745Z,4.58
2023-02-19T01:01:56.681Z,4.63
2023-02-19T01:17:38.849Z,4.71
2023-02-19T01:33:21.017Z,4.78
2023-02-19T01:49:03.525Z,4.83
2023-02-19T02:04:46.108Z,4.86
2023-02-19T02:20:28.592Z,4.87
2023-02-19T02:36:11.061Z,4.61
2023-02-19T02:51:53.715Z,4.5
2023-02-19T03:07:36.266Z,4.27
2023-02-19T03:23:19.382Z,4.12
2023-02-19T03:39:01.751Z,3.95
2023-02-19T03:54:44.899Z,3.55
2023-02-19T04:10:27.704Z,3.19
2023-02-19T04:26:09.873Z,2.76
2023-02-19T04:41:52.301Z,2.55
2023-02-19T04:57:35.103Z,2.36
2023-02-19T05:13:17.499Z,2.21
2023-02-19T05:29:00.378Z,2.18
2023-02-19T05:44:43.150Z,2.13
2023-02-19T06:00:26.146Z,2.13
2023-02-19T06:16:08.823Z,2.08
2023-02-19T06:31:51.154Z,2.04
2023-02-19T06:47:33.681Z,2.15
2023-02-19T07:03:16.228Z,2.22
2023-02-19T07:18:58.546Z,2.35
2023-02-19T07:34:41.078Z,2.55
2023-02-19T07:50:24.272Z,2.8
2023-02-19T08:06:06.637Z,2.96
2023-02-19T08:21:48.671Z,3.18
2023-02-19T08:37:31.226Z,4
2023-02-19T09:56:03.967Z,5.49
2023-02-19T10:11:53.500Z,5.79
2023-02-19T10:27:35.965Z,6.73
2023-02-19T11:14:43.639Z,6.82
2023-02-19T11:30:18.810Z,7.37
2023-02-19T12:01:43.607Z,9.14
2023-02-19T12:17:33.328Z,8.5
2023-02-19T12:33:16.354Z,7.14
2023-02-19T14:07:24.303Z,14.4
2023-02-19T14:23:07.310Z,11.03
2023-02-19T14:38:50.369Z,9.34
2023-02-19T14:54:47.461Z,8.56
2023-02-19T15:10:15.747Z,8.1
2023-02-19T15:26:05.772Z,7.05
2023-02-19T15:41:41.581Z,6.22
2023-02-19T15:42:35.995Z,6.39
2023-02-19T15:58:11.460Z,5.68
2023-02-19T16:13:54.471Z,5.28
2023-02-19T16:29:36.692Z,5
2023-02-19T16:45:19.414Z,4.73
2023-02-19T17:01:02.519Z,4.44
2023-02-19T17:16:44.778Z,4.23
2023-02-19T17:32:27.701Z,3.89
2023-02-19T17:48:10.580Z,3.52
2023-02-19T18:03:53.356Z,3.42
2023-02-19T18:19:36.127Z,3.37
2023-02-19T18:35:18.416Z,3.34
2023-02-19T18:51:00.903Z,3.26
2023-02-19T19:06:43.892Z,3.09
2023-02-19T19:22:26.663Z,2.93
2023-02-19T19:38:09.574Z,2.84
2023-02-19T19:53:52.270Z,2.65
2023-02-19T20:09:34.940Z,2.55
2023-02-19T20:25:17.366Z,2.39
2023-02-19T20:40:59.578Z,2.31
2023-02-19T20:56:42.013Z,2.21
2023-02-19T21:12:24.262Z,2.24
2023-02-19T21:28:07.300Z,2.17
2023-02-19T21:43:49.514Z,2.04
2023-02-19T21:59:32.435Z,1.86
2023-02-19T22:15:15.209Z,1.91
2023-02-19T22:30:57.730Z,1.98
2023-02-19T22:46:40.162Z,1.78
2023-02-19T23:02:23.065Z,1.63
2023-02-19T23:18:05.755Z,1.58
2023-02-19T23:33:48.062Z,1.45
2023-02-19T23:49:31.091Z,1.27
